Portada
METAR-TAF:

METAR-TAF

Aeropuertos :

Baréin, Bahréin

Aeropuerto Internacional de Baréin

latitud: 26-16N, longitud: 050-39E, altitud: 2 m

Observación

El informe se hizo hace 9 minutos, a las 20:30 UTC
Viento 5 kt del este-sureste
Temperatura 36°C
Humedad 57%
Presión 995 hPa
Visibilidad: 7000 m
Cielo despejado

METAR: OBBI 242030Z 12005KT 7000 SKC 36/26 Q0995 NOSIG

Hora: 23:39 (20:39 UTC)

Pronóstico

El informe se hizo hace 3 horas y 39 minutos, a las 17:00 UTC
Pronóstico válido del 24 a las 18 UTC al 26 a las 00 UTC
Viento 5 kt con dirección variable
Visibilidad 10 km o más
sin nubes por debajo de 1500 m y sin presencia de cumulonimbus.
Evolucionando progresivamente
del 25 a las 08 UTC al 25 a las 10 UTC
Viento 10 kt del norte-noroeste
Evolucionando progresivamente
del 25 a las 18 UTC al 25 a las 20 UTC
Viento 5 kt con dirección variable

TAF: OBBI 241700Z 2418/2600 VRB05KT CAVOK BECMG 2508/2510 34010KT BECMG 2518/2520 VRB05KT

Observaciones y pronósticos meteorológicos de más de 4000 aeropuertos (mensajes METAR y TAF).

Los puntos amarillos y rojos representan las estaciones disponibles.

Ponga el ratón en el punto deseado para ver el nombre de la estación.

Haga clic para ver las observaciones y los pronósticos meteorológicos.

Para cambiar el mapa : haga clic en los botones verdes con una cruz de color negro para hacer un zoom, en el botón verde con un guión para alejar o en las flechas verdes para mapas adyacentes.


METAR-TAF: